sensor_id;sensor_type;location;lat;lon;timestamp;pressure;altitude;pressure_sealevel;temperature;humidity
77005;BME280;67261;53.132;18.006;2023-11-19T00:01:23;101773.10;;;1.25;78.96
77005;BME280;67261;53.132;18.006;2023-11-19T00:03:49;101773.71;;;1.19;79.09
77005;BME280;67261;53.132;18.006;2023-11-19T00:06:16;101776.45;;;1.12;78.92
77005;BME280;67261;53.132;18.006;2023-11-19T00:08:42;101777.95;;;1.06;79.23
77005;BME280;67261;53.132;18.006;2023-11-19T00:11:09;101768.73;;;1.02;79.15
77005;BME280;67261;53.132;18.006;2023-11-19T00:13:35;101758.17;;;0.96;79.39
77005;BME280;67261;53.132;18.006;2023-11-19T00:16:02;101753.24;;;0.93;79.37
77005;BME280;67261;53.132;18.006;2023-11-19T00:18:30;101748.80;;;0.91;79.39
77005;BME280;67261;53.132;18.006;2023-11-19T00:20:56;101748.55;;;0.89;79.18
77005;BME280;67261;53.132;18.006;2023-11-19T00:23:22;101753.11;;;0.80;79.15
77005;BME280;67261;53.132;18.006;2023-11-19T00:25:49;101749.38;;;0.74;79.43
77005;BME280;67261;53.132;18.006;2023-11-19T00:28:15;101747.27;;;0.74;79.58
77005;BME280;67261;53.132;18.006;2023-11-19T00:30:41;101745.27;;;0.73;79.48
77005;BME280;67261;53.132;18.006;2023-11-19T00:33:07;101748.27;;;0.72;79.48
77005;BME280;67261;53.132;18.006;2023-11-19T00:35:33;101745.87;;;0.70;79.70
77005;BME280;67261;53.132;18.006;2023-11-19T00:38:00;101743.47;;;0.70;79.63
77005;BME280;67261;53.132;18.006;2023-11-19T00:40:26;101736.16;;;0.66;79.37
77005;BME280;67261;53.132;18.006;2023-11-19T00:42:52;101733.05;;;0.61;79.64
77005;BME280;67261;53.132;18.006;2023-11-19T00:45:19;101728.39;;;0.60;79.70
77005;BME280;67261;53.132;18.006;2023-11-19T00:47:45;101722.36;;;0.59;79.73
77005;BME280;67261;53.132;18.006;2023-11-19T00:50:11;101712.86;;;0.57;79.94
77005;BME280;67261;53.132;18.006;2023-11-19T00:52:39;101703.33;;;0.56;79.93
77005;BME280;67261;53.132;18.006;2023-11-19T00:55:06;101697.93;;;0.56;79.84
77005;BME280;67261;53.132;18.006;2023-11-19T00:57:32;101698.29;;;0.56;79.87
77005;BME280;67261;53.132;18.006;2023-11-19T00:59:59;101698.38;;;0.54;79.92
77005;BME280;67261;53.132;18.006;2023-11-19T01:02:25;101696.63;;;0.54;80.09
77005;BME280;67261;53.132;18.006;2023-11-19T01:04:52;101694.77;;;0.53;79.92
77005;BME280;67261;53.132;18.006;2023-11-19T01:07:18;101687.05;;;0.50;79.96
77005;BME280;67261;53.132;18.006;2023-11-19T01:09:44;101682.43;;;0.48;79.90
77005;BME280;67261;53.132;18.006;2023-11-19T01:12:10;101676.77;;;0.46;80.08
77005;BME280;67261;53.132;18.006;2023-11-19T01:14:37;101664.30;;;0.45;80.00
77005;BME280;67261;53.132;18.006;2023-11-19T01:17:03;101659.47;;;0.44;79.85
77005;BME280;67261;53.132;18.006;2023-11-19T01:19:30;101655.91;;;0.41;79.94
77005;BME280;67261;53.132;18.006;2023-11-19T01:21:56;101660.77;;;0.38;80.02
77005;BME280;67261;53.132;18.006;2023-11-19T01:24:23;101663.60;;;0.37;80.03
77005;BME280;67261;53.132;18.006;2023-11-19T01:26:49;101659.94;;;0.37;80.09
77005;BME280;67261;53.132;18.006;2023-11-19T01:29:15;101664.29;;;0.37;80.10
77005;BME280;67261;53.132;18.006;2023-11-19T01:31:46;101655.96;;;0.36;80.02
77005;BME280;67261;53.132;18.006;2023-11-19T01:34:17;101657.88;;;0.32;80.11
77005;BME280;67261;53.132;18.006;2023-11-19T01:36:43;101659.98;;;0.27;80.17
77005;BME280;67261;53.132;18.006;2023-11-19T01:39:09;101651.98;;;0.24;80.19
77005;BME280;67261;53.132;18.006;2023-11-19T01:41:36;101644.63;;;0.21;80.33
77005;BME280;67261;53.132;18.006;2023-11-19T01:44:02;101641.09;;;0.18;80.38
77005;BME280;67261;53.132;18.006;2023-11-19T01:46:30;101632.40;;;0.14;80.49
77005;BME280;67261;53.132;18.006;2023-11-19T01:48:59;101621.20;;;0.07;80.57
77005;BME280;67261;53.132;18.006;2023-11-19T01:51:26;101612.83;;;0.04;80.69
77005;BME280;67261;53.132;18.006;2023-11-19T01:53:54;101608.93;;;0.01;80.81
77005;BME280;67261;53.132;18.006;2023-11-19T01:56:21;101597.45;;;-0.03;80.93
77005;BME280;67261;53.132;18.006;2023-11-19T01:58:49;101588.46;;;-0.09;80.97
77005;BME280;67261;53.132;18.006;2023-11-19T02:01:16;101588.46;;;-0.12;81.12
77005;BME280;67261;53.132;18.006;2023-11-19T02:03:43;101588.08;;;-0.16;81.16
77005;BME280;67261;53.132;18.006;2023-11-19T02:06:09;101579.85;;;-0.19;81.32
77005;BME280;67261;53.132;18.006;2023-11-19T02:08:36;101575.44;;;-0.21;81.32
77005;BME280;67261;53.132;18.006;2023-11-19T02:11:04;101574.97;;;-0.23;81.49
77005;BME280;67261;53.132;18.006;2023-11-19T02:13:32;101578.46;;;-0.23;81.73
77005;BME280;67261;53.132;18.006;2023-11-19T02:15:59;101582.16;;;-0.23;81.64
77005;BME280;67261;53.132;18.006;2023-11-19T02:18:27;101581.23;;;-0.23;81.82
77005;BME280;67261;53.132;18.006;2023-11-19T02:20:55;101577.24;;;-0.23;81.87
77005;BME280;67261;53.132;18.006;2023-11-19T02:23:22;101567.14;;;-0.22;82.01
77005;BME280;67261;53.132;18.006;2023-11-19T02:26:13;101547.91;;;-0.24;81.97
77005;BME280;67261;53.132;18.006;2023-11-19T02:28:43;101534.23;;;-0.29;81.88
77005;BME280;67261;53.132;18.006;2023-11-19T02:31:11;101530.63;;;-0.30;82.07
77005;BME280;67261;53.132;18.006;2023-11-19T02:33:38;101531.27;;;-0.33;82.27
77005;BME280;67261;53.132;18.006;2023-11-19T02:36:08;101532.18;;;-0.38;82.54
77005;BME280;67261;53.132;18.006;2023-11-19T02:38:35;101527.59;;;-0.44;82.40
77005;BME280;67261;53.132;18.006;2023-11-19T02:41:05;101525.21;;;-0.46;82.54
77005;BME280;67261;53.132;18.006;2023-11-19T02:43:37;101515.33;;;-0.46;82.57
77005;BME280;67261;53.132;18.006;2023-11-19T02:46:04;101505.54;;;-0.45;82.68
77005;BME280;67261;53.132;18.006;2023-11-19T02:48:35;101497.97;;;-0.43;82.95
77005;BME280;67261;53.132;18.006;2023-11-19T02:51:02;101495.42;;;-0.40;82.58
77005;BME280;67261;53.132;18.006;2023-11-19T02:53:30;101495.46;;;-0.37;82.68
77005;BME280;67261;53.132;18.006;2023-11-19T02:55:56;101487.80;;;-0.37;82.72
77005;BME280;67261;53.132;18.006;2023-11-19T02:58:35;101479.61;;;-0.41;82.46
77005;BME280;67261;53.132;18.006;2023-11-19T03:01:01;101479.67;;;-0.42;82.72
77005;BME280;67261;53.132;18.006;2023-11-19T03:03:38;101475.48;;;-0.42;82.70
77005;BME280;67261;53.132;18.006;2023-11-19T03:06:07;101474.85;;;-0.43;82.70
77005;BME280;67261;53.132;18.006;2023-11-19T03:08:35;101468.09;;;-0.43;82.73
77005;BME280;67261;53.132;18.006;2023-11-19T03:11:02;101472.81;;;-0.40;82.76
77005;BME280;67261;53.132;18.006;2023-11-19T03:13:29;101465.05;;;-0.37;82.61
77005;BME280;67261;53.132;18.006;2023-11-19T03:15:55;101457.04;;;-0.33;82.83
77005;BME280;67261;53.132;18.006;2023-11-19T03:18:22;101449.39;;;-0.29;82.66
77005;BME280;67261;53.132;18.006;2023-11-19T03:20:48;101440.89;;;-0.26;82.63
77005;BME280;67261;53.132;18.006;2023-11-19T03:23:16;101432.05;;;-0.23;82.53
77005;BME280;67261;53.132;18.006;2023-11-19T03:25:42;101417.41;;;-0.22;82.48
77005;BME280;67261;53.132;18.006;2023-11-19T03:28:09;101409.88;;;-0.21;82.38
77005;BME280;67261;53.132;18.006;2023-11-19T03:30:37;101401.36;;;-0.21;82.52
77005;BME280;67261;53.132;18.006;2023-11-19T03:33:04;101393.20;;;-0.25;82.49
77005;BME280;67261;53.132;18.006;2023-11-19T03:35:30;101385.89;;;-0.28;82.53
77005;BME280;67261;53.132;18.006;2023-11-19T03:37:57;101378.95;;;-0.28;82.29
77005;BME280;67261;53.132;18.006;2023-11-19T03:40:24;101375.98;;;-0.28;82.58
77005;BME280;67261;53.132;18.006;2023-11-19T03:42:51;101379.83;;;-0.29;82.40
77005;BME280;67261;53.132;18.006;2023-11-19T03:45:17;101366.90;;;-0.27;82.52
77005;BME280;67261;53.132;18.006;2023-11-19T03:47:44;101361.83;;;-0.27;82.35
77005;BME280;67261;53.132;18.006;2023-11-19T03:50:10;101358.44;;;-0.25;82.35
77005;BME280;67261;53.132;18.006;2023-11-19T03:52:36;101363.40;;;-0.27;82.37
77005;BME280;67261;53.132;18.006;2023-11-19T03:55:03;101363.66;;;-0.29;82.36
77005;BME280;67261;53.132;18.006;2023-11-19T03:57:31;101370.08;;;-0.28;82.29
77005;BME280;67261;53.132;18.006;2023-11-19T03:59:57;101361.54;;;-0.24;82.39
77005;BME280;67261;53.132;18.006;2023-11-19T04:02:25;101366.66;;;-0.18;82.19
77005;BME280;67261;53.132;18.006;2023-11-19T04:04:55;101362.17;;;-0.12;82.15
77005;BME280;67261;53.132;18.006;2023-11-19T04:07:21;101350.40;;;-0.05;81.88
77005;BME280;67261;53.132;18.006;2023-11-19T04:09:48;101342.04;;;-0.01;81.66
77005;BME280;67261;53.132;18.006;2023-11-19T04:12:14;101335.68;;;0.01;81.61
77005;BME280;67261;53.132;18.006;2023-11-19T04:14:43;101341.23;;;0.01;81.61
77005;BME280;67261;53.132;18.006;2023-11-19T04:17:10;101338.00;;;0.04;81.47
77005;BME280;67261;53.132;18.006;2023-11-19T04:19:36;101336.95;;;0.04;81.34
77005;BME280;67261;53.132;18.006;2023-11-19T04:22:03;101330.36;;;0.03;81.27
77005;BME280;67261;53.132;18.006;2023-11-19T04:24:29;101321.99;;;0.04;81.33
77005;BME280;67261;53.132;18.006;2023-11-19T04:26:55;101312.46;;;0.07;81.24
77005;BME280;67261;53.132;18.006;2023-11-19T04:29:22;101306.36;;;0.07;81.15
77005;BME280;67261;53.132;18.006;2023-11-19T04:31:48;101305.46;;;0.07;81.15
77005;BME280;67261;53.132;18.006;2023-11-19T04:34:14;101308.97;;;0.10;81.13
77005;BME280;67261;53.132;18.006;2023-11-19T04:36:41;101308.72;;;0.12;81.12
77005;BME280;67261;53.132;18.006;2023-11-19T04:39:07;101306.29;;;0.12;81.11
77005;BME280;67261;53.132;18.006;2023-11-19T04:41:48;101297.42;;;0.12;80.98
77005;BME280;67261;53.132;18.006;2023-11-19T04:44:16;101288.15;;;0.09;81.00
77005;BME280;67261;53.132;18.006;2023-11-19T04:46:42;101280.00;;;0.08;81.01
77005;BME280;67261;53.132;18.006;2023-11-19T04:49:12;101274.85;;;0.07;81.23
77005;BME280;67261;53.132;18.006;2023-11-19T04:51:40;101271.33;;;0.08;81.19
77005;BME280;67261;53.132;18.006;2023-11-19T04:54:11;101263.52;;;0.08;80.98
77005;BME280;67261;53.132;18.006;2023-11-19T04:56:37;101254.92;;;0.06;81.06
77005;BME280;67261;53.132;18.006;2023-11-19T04:59:04;101248.48;;;0.06;81.24
77005;BME280;67261;53.132;18.006;2023-11-19T05:01:35;101244.48;;;0.09;81.20
77005;BME280;67261;53.132;18.006;2023-11-19T05:04:01;101241.03;;;0.12;81.29
77005;BME280;67261;53.132;18.006;2023-11-19T05:06:30;101235.96;;;0.12;81.05
77005;BME280;67261;53.132;18.006;2023-11-19T05:08:59;101228.23;;;0.15;81.22
77005;BME280;67261;53.132;18.006;2023-11-19T05:11:27;101224.83;;;0.13;81.31
77005;BME280;67261;53.132;18.006;2023-11-19T05:13:54;101226.88;;;0.14;81.50
77005;BME280;67261;53.132;18.006;2023-11-19T05:16:20;101223.80;;;0.16;81.52
77005;BME280;67261;53.132;18.006;2023-11-19T05:18:47;101221.86;;;0.16;81.54
77005;BME280;67261;53.132;18.006;2023-11-19T05:21:14;101219.16;;;0.18;81.48
77005;BME280;67261;53.132;18.006;2023-11-19T05:23:42;101212.85;;;0.19;81.55
77005;BME280;67261;53.132;18.006;2023-11-19T05:26:09;101207.02;;;0.17;81.59
77005;BME280;67261;53.132;18.006;2023-11-19T05:28:38;101190.64;;;0.18;81.59
77005;BME280;67261;53.132;18.006;2023-11-19T05:31:05;101185.55;;;0.19;81.83
77005;BME280;67261;53.132;18.006;2023-11-19T05:33:32;101183.70;;;0.17;81.83
77005;BME280;67261;53.132;18.006;2023-11-19T05:35:58;101181.63;;;0.17;81.87
77005;BME280;67261;53.132;18.006;2023-11-19T05:38:24;101182.87;;;0.17;81.97
77005;BME280;67261;53.132;18.006;2023-11-19T05:40:51;101186.50;;;0.17;82.15
77005;BME280;67261;53.132;18.006;2023-11-19T05:43:17;101176.33;;;0.19;82.03
77005;BME280;67261;53.132;18.006;2023-11-19T05:45:44;101178.98;;;0.25;81.98
77005;BME280;67261;53.132;18.006;2023-11-19T05:48:10;101178.70;;;0.27;81.96
77005;BME280;67261;53.132;18.006;2023-11-19T05:50:36;101175.77;;;0.30;81.96
77005;BME280;67261;53.132;18.006;2023-11-19T05:53:03;101172.67;;;0.32;81.92
77005;BME280;67261;53.132;18.006;2023-11-19T05:55:34;101171.56;;;0.34;81.86
77005;BME280;67261;53.132;18.006;2023-11-19T05:58:01;101163.58;;;0.37;81.94
77005;BME280;67261;53.132;18.006;2023-11-19T06:00:29;101158.58;;;0.39;81.82
77005;BME280;67261;53.132;18.006;2023-11-19T06:02:56;101157.11;;;0.41;81.88
77005;BME280;67261;53.132;18.006;2023-11-19T06:05:22;101155.52;;;0.41;81.77
77005;BME280;67261;53.132;18.006;2023-11-19T06:07:49;101149.94;;;0.45;81.89
77005;BME280;67261;53.132;18.006;2023-11-19T06:10:17;101146.30;;;0.47;81.79
77005;BME280;67261;53.132;18.006;2023-11-19T06:12:44;101141.58;;;0.48;81.74
77005;BME280;67261;53.132;18.006;2023-11-19T06:15:12;101132.29;;;0.50;81.76
77005;BME280;67261;53.132;18.006;2023-11-19T06:17:38;101124.34;;;0.52;81.82
77005;BME280;67261;53.132;18.006;2023-11-19T06:20:05;101115.82;;;0.51;81.85
77005;BME280;67261;53.132;18.006;2023-11-19T06:22:32;101108.63;;;0.49;81.81
77005;BME280;67261;53.132;18.006;2023-11-19T06:24:59;101101.09;;;0.47;81.95
77005;BME280;67261;53.132;18.006;2023-11-19T06:27:26;101095.69;;;0.47;81.90
77005;BME280;67261;53.132;18.006;2023-11-19T06:29:52;101095.17;;;0.47;81.92
77005;BME280;67261;53.132;18.006;2023-11-19T06:32:19;101092.22;;;0.46;82.07
77005;BME280;67261;53.132;18.006;2023-11-19T06:34:45;101091.20;;;0.49;82.11
77005;BME280;67261;53.132;18.006;2023-11-19T06:37:11;101086.80;;;0.54;82.14
77005;BME280;67261;53.132;18.006;2023-11-19T06:39:38;101077.83;;;0.53;81.98
77005;BME280;67261;53.132;18.006;2023-11-19T06:42:04;101074.95;;;0.51;82.12
77005;BME280;67261;53.132;18.006;2023-11-19T06:44:30;101071.71;;;0.53;82.18
77005;BME280;67261;53.132;18.006;2023-11-19T06:46:57;101071.15;;;0.57;82.17
77005;BME280;67261;53.132;18.006;2023-11-19T06:49:23;101071.59;;;0.58;82.02
77005;BME280;67261;53.132;18.006;2023-11-19T06:51:50;101064.56;;;0.59;82.04
77005;BME280;67261;53.132;18.006;2023-11-19T06:54:17;101059.06;;;0.61;81.99
77005;BME280;67261;53.132;18.006;2023-11-19T06:56:43;101055.46;;;0.64;81.95
77005;BME280;67261;53.132;18.006;2023-11-19T06:59:10;101050.58;;;0.67;82.03
77005;BME280;67261;53.132;18.006;2023-11-19T07:01:36;101046.90;;;0.67;81.86
77005;BME280;67261;53.132;18.006;2023-11-19T07:04:03;101037.17;;;0.70;81.85
77005;BME280;67261;53.132;18.006;2023-11-19T07:06:35;101036.34;;;0.72;81.76
77005;BME280;67261;53.132;18.006;2023-11-19T07:09:03;101030.40;;;0.76;81.77
77005;BME280;67261;53.132;18.006;2023-11-19T07:11:37;101024.79;;;0.79;81.77
77005;BME280;67261;53.132;18.006;2023-11-19T07:14:06;101019.28;;;0.85;81.48
77005;BME280;67261;53.132;18.006;2023-11-19T07:16:33;101017.39;;;0.88;81.42
77005;BME280;67261;53.132;18.006;2023-11-19T07:19:01;101017.39;;;0.93;81.44
77005;BME280;67261;53.132;18.006;2023-11-19T07:21:27;101009.27;;;0.99;81.27
77005;BME280;67261;53.132;18.006;2023-11-19T07:23:56;101006.68;;;1.01;81.03
77005;BME280;67261;53.132;18.006;2023-11-19T07:26:23;101007.02;;;1.02;80.98
77005;BME280;67261;53.132;18.006;2023-11-19T07:28:49;101006.84;;;1.02;80.89
77005;BME280;67261;53.132;18.006;2023-11-19T07:31:17;101002.38;;;1.04;80.91
77005;BME280;67261;53.132;18.006;2023-11-19T07:33:46;100996.95;;;1.07;80.70
77005;BME280;67261;53.132;18.006;2023-11-19T07:36:14;100995.20;;;1.10;80.71
77005;BME280;67261;53.132;18.006;2023-11-19T07:38:40;100994.30;;;1.14;80.69
77005;BME280;67261;53.132;18.006;2023-11-19T07:41:07;100991.59;;;1.16;80.51
77005;BME280;67261;53.132;18.006;2023-11-19T07:43:44;100986.37;;;1.18;80.39
77005;BME280;67261;53.132;18.006;2023-11-19T07:46:13;100980.27;;;1.21;80.10
77005;BME280;67261;53.132;18.006;2023-11-19T07:48:40;100977.27;;;1.22;80.20
77005;BME280;67261;53.132;18.006;2023-11-19T07:51:06;100971.91;;;1.24;80.04
77005;BME280;67261;53.132;18.006;2023-11-19T07:53:33;100965.96;;;1.24;80.03
77005;BME280;67261;53.132;18.006;2023-11-19T07:56:00;100961.64;;;1.24;80.05
77005;BME280;67261;53.132;18.006;2023-11-19T07:58:27;100953.09;;;1.24;80.15
77005;BME280;67261;53.132;18.006;2023-11-19T08:00:54;100946.20;;;1.26;79.91
77005;BME280;67261;53.132;18.006;2023-11-19T08:03:20;100948.00;;;1.28;79.87
77005;BME280;67261;53.132;18.006;2023-11-19T08:05:49;100941.61;;;1.30;79.97
77005;BME280;67261;53.132;18.006;2023-11-19T08:08:15;100937.00;;;1.31;79.88
77005;BME280;67261;53.132;18.006;2023-11-19T08:10:43;100932.75;;;1.32;79.83
77005;BME280;67261;53.132;18.006;2023-11-19T08:13:11;100928.04;;;1.35;79.96
77005;BME280;67261;53.132;18.006;2023-11-19T08:15:38;100925.25;;;1.38;79.82
77005;BME280;67261;53.132;18.006;2023-11-19T08:18:04;100926.33;;;1.40;79.90
77005;BME280;67261;53.132;18.006;2023-11-19T08:20:31;100925.30;;;1.43;79.98
77005;BME280;67261;53.132;18.006;2023-11-19T08:22:58;100922.55;;;1.45;79.90
77005;BME280;67261;53.132;18.006;2023-11-19T08:25:24;100916.13;;;1.45;79.82
77005;BME280;67261;53.132;18.006;2023-11-19T08:27:50;100912.28;;;1.45;79.81
77005;BME280;67261;53.132;18.006;2023-11-19T08:30:16;100902.09;;;1.47;79.88
77005;BME280;67261;53.132;18.006;2023-11-19T08:32:43;100896.83;;;1.50;79.57
77005;BME280;67261;53.132;18.006;2023-11-19T08:35:09;100897.83;;;1.51;79.60
77005;BME280;67261;53.132;18.006;2023-11-19T08:37:36;100894.30;;;1.54;79.75
77005;BME280;67261;53.132;18.006;2023-11-19T08:40:06;100891.36;;;1.57;79.65
77005;BME280;67261;53.132;18.006;2023-11-19T08:42:34;100887.48;;;1.58;79.67
77005;BME280;67261;53.132;18.006;2023-11-19T08:45:00;100880.25;;;1.59;79.56
77005;BME280;67261;53.132;18.006;2023-11-19T08:47:27;100872.60;;;1.58;79.24
77005;BME280;67261;53.132;18.006;2023-11-19T08:49:53;100868.21;;;1.59;79.29
77005;BME280;67261;53.132;18.006;2023-11-19T08:52:20;100855.84;;;1.61;79.32
77005;BME280;67261;53.132;18.006;2023-11-19T08:54:46;100847.43;;;1.62;79.29
77005;BME280;67261;53.132;18.006;2023-11-19T08:57:13;100842.00;;;1.62;79.54
77005;BME280;67261;53.132;18.006;2023-11-19T08:59:39;100837.29;;;1.65;79.52
77005;BME280;67261;53.132;18.006;2023-11-19T09:02:06;100831.63;;;1.70;79.44
77005;BME280;67261;53.132;18.006;2023-11-19T09:04:33;100837.25;;;1.77;79.61
77005;BME280;67261;53.132;18.006;2023-11-19T09:06:59;100834.25;;;1.89;79.50
77005;BME280;67261;53.132;18.006;2023-11-19T09:09:29;100830.52;;;1.98;79.23
77005;BME280;67261;53.132;18.006;2023-11-19T09:11:56;100824.39;;;2.07;79.14
77005;BME280;67261;53.132;18.006;2023-11-19T09:14:23;100826.35;;;2.17;79.02
77005;BME280;67261;53.132;18.006;2023-11-19T09:16:52;100818.82;;;2.23;78.68
77005;BME280;67261;53.132;18.006;2023-11-19T09:19:18;100814.31;;;2.25;78.66
77005;BME280;67261;53.132;18.006;2023-11-19T09:21:45;100812.69;;;2.28;78.82
77005;BME280;67261;53.132;18.006;2023-11-19T09:24:11;100806.13;;;2.30;78.63
77005;BME280;67261;53.132;18.006;2023-11-19T09:26:37;100798.79;;;2.30;78.65
77005;BME280;67261;53.132;18.006;2023-11-19T09:29:07;100792.44;;;2.34;78.52
77005;BME280;67261;53.132;18.006;2023-11-19T09:31:34;100781.80;;;2.39;78.76
77005;BME280;67261;53.132;18.006;2023-11-19T09:34:01;100774.52;;;2.49;78.88
77005;BME280;67261;53.132;18.006;2023-11-19T09:36:27;100769.33;;;2.58;78.67
77005;BME280;67261;53.132;18.006;2023-11-19T09:38:53;100766.97;;;2.60;78.18
77005;BME280;67261;53.132;18.006;2023-11-19T09:41:19;100756.85;;;2.57;78.32
77005;BME280;67261;53.132;18.006;2023-11-19T09:43:46;100752.98;;;2.55;77.95
77005;BME280;67261;53.132;18.006;2023-11-19T09:46:14;100745.80;;;2.55;78.24
77005;BME280;67261;53.132;18.006;2023-11-19T09:48:42;100736.16;;;2.53;78.27
77005;BME280;67261;53.132;18.006;2023-11-19T09:51:09;100732.27;;;2.51;78.03
77005;BME280;67261;53.132;18.006;2023-11-19T09:53:37;100728.07;;;2.49;78.18
77005;BME280;67261;53.132;18.006;2023-11-19T09:56:05;100725.08;;;2.47;78.39
77005;BME280;67261;53.132;18.006;2023-11-19T09:58:32;100719.86;;;2.44;78.50
77005;BME280;67261;53.132;18.006;2023-11-19T10:00:59;100714.69;;;2.45;78.74
77005;BME280;67261;53.132;18.006;2023-11-19T10:03:27;100707.85;;;2.43;78.63
77005;BME280;67261;53.132;18.006;2023-11-19T10:05:57;100695.98;;;2.46;78.82
77005;BME280;67261;53.132;18.006;2023-11-19T10:08:23;100688.90;;;2.44;78.67
77005;BME280;67261;53.132;18.006;2023-11-19T10:10:50;100695.25;;;2.46;78.69
77005;BME280;67261;53.132;18.006;2023-11-19T10:13:18;100690.50;;;2.49;78.65
77005;BME280;67261;53.132;18.006;2023-11-19T10:15:44;100684.40;;;2.52;78.38
77005;BME280;67261;53.132;18.006;2023-11-19T10:18:11;100679.77;;;2.53;78.67
77005;BME280;67261;53.132;18.006;2023-11-19T10:20:37;100672.76;;;2.58;78.59
77005;BME280;67261;53.132;18.006;2023-11-19T10:23:03;100675.05;;;2.63;78.43
77005;BME280;67261;53.132;18.006;2023-11-19T10:25:29;100674.42;;;2.67;78.53
77005;BME280;67261;53.132;18.006;2023-11-19T10:27:56;100665.42;;;2.71;78.44
77005;BME280;67261;53.132;18.006;2023-11-19T10:30:24;100667.41;;;2.75;78.42
77005;BME280;67261;53.132;18.006;2023-11-19T10:33:12;100661.77;;;2.78;78.36
77005;BME280;67261;53.132;18.006;2023-11-19T10:35:54;100659.59;;;2.82;78.15
77005;BME280;67261;53.132;18.006;2023-11-19T10:38:24;100655.12;;;2.81;78.17
77005;BME280;67261;53.132;18.006;2023-11-19T10:40:50;100645.82;;;2.79;78.27
77005;BME280;67261;53.132;18.006;2023-11-19T10:43:18;100649.64;;;2.77;78.50
77005;BME280;67261;53.132;18.006;2023-11-19T10:45:45;100641.84;;;2.78;78.46
77005;BME280;67261;53.132;18.006;2023-11-19T10:48:12;100635.28;;;2.77;78.33
77005;BME280;67261;53.132;18.006;2023-11-19T10:50:40;100639.45;;;2.72;78.05
77005;BME280;67261;53.132;18.006;2023-11-19T10:53:07;100637.46;;;2.66;78.23
77005;BME280;67261;53.132;18.006;2023-11-19T10:55:35;100631.81;;;2.62;78.53
77005;BME280;67261;53.132;18.006;2023-11-19T10:58:08;100629.98;;;2.58;78.54
77005;BME280;67261;53.132;18.006;2023-11-19T11:00:51;100626.14;;;2.58;78.89
77005;BME280;67261;53.132;18.006;2023-11-19T11:03:20;100620.36;;;2.61;79.00
77005;BME280;67261;53.132;18.006;2023-11-19T11:05:48;100617.59;;;2.63;79.03
77005;BME280;67261;53.132;18.006;2023-11-19T11:08:15;100612.33;;;2.63;79.00
77005;BME280;67261;53.132;18.006;2023-11-19T11:10:55;100606.52;;;2.64;79.22
77005;BME280;67261;53.132;18.006;2023-11-19T11:13:23;100602.87;;;2.61;79.19
77005;BME280;67261;53.132;18.006;2023-11-19T11:15:51;100596.63;;;2.58;79.53
77005;BME280;67261;53.132;18.006;2023-11-19T11:18:17;100588.44;;;2.53;79.69
77005;BME280;67261;53.132;18.006;2023-11-19T11:20:46;100583.30;;;2.46;79.80
77005;BME280;67261;53.132;18.006;2023-11-19T11:29:05;100563.09;;;2.36;80.19
77005;BME280;67261;53.132;18.006;2023-11-19T11:39:31;100533.95;;;2.06;81.09
77005;BME280;67261;53.132;18.006;2023-11-19T11:44:58;100516.38;;;1.94;81.43
77005;BME280;67261;53.132;18.006;2023-11-19T11:47:29;100504.87;;;1.87;81.60
77005;BME280;67261;53.132;18.006;2023-11-19T11:57:58;100492.48;;;1.64;82.54
77005;BME280;67261;53.132;18.006;2023-11-19T12:00:30;100486.11;;;1.60;82.47
77005;BME280;67261;53.132;18.006;2023-11-19T12:02:59;100482.63;;;1.57;82.80
77005;BME280;67261;53.132;18.006;2023-11-19T12:05:26;100478.60;;;1.53;82.89
77005;BME280;67261;53.132;18.006;2023-11-19T12:08:01;100471.27;;;1.47;83.21
77005;BME280;67261;53.132;18.006;2023-11-19T12:10:32;100465.59;;;1.44;83.16
77005;BME280;67261;53.132;18.006;2023-11-19T12:12:59;100466.83;;;1.43;83.37
77005;BME280;67261;53.132;18.006;2023-11-19T12:15:26;100464.55;;;1.43;83.43
77005;BME280;67261;53.132;18.006;2023-11-19T12:17:54;100449.59;;;1.40;83.31
77005;BME280;67261;53.132;18.006;2023-11-19T12:20:23;100438.35;;;1.39;83.87
77005;BME280;67261;53.132;18.006;2023-11-19T12:22:50;100427.36;;;1.37;84.00
77005;BME280;67261;53.132;18.006;2023-11-19T12:25:18;100417.73;;;1.34;83.98
77005;BME280;67261;53.132;18.006;2023-11-19T12:27:46;100408.05;;;1.34;84.11
77005;BME280;67261;53.132;18.006;2023-11-19T12:30:23;100407.76;;;1.33;83.89
77005;BME280;67261;53.132;18.006;2023-11-19T12:32:50;100414.66;;;1.31;84.09
77005;BME280;67261;53.132;18.006;2023-11-19T12:35:19;100402.08;;;1.29;84.33
77005;BME280;67261;53.132;18.006;2023-11-19T12:37:47;100393.55;;;1.27;84.72
77005;BME280;67261;53.132;18.006;2023-11-19T12:40:18;100402.29;;;1.24;84.62
77005;BME280;67261;53.132;18.006;2023-11-19T12:42:45;100419.66;;;1.24;84.41
77005;BME280;67261;53.132;18.006;2023-11-19T12:45:13;100438.05;;;1.26;84.51
77005;BME280;67261;53.132;18.006;2023-11-19T12:47:40;100446.18;;;1.27;84.63
77005;BME280;67261;53.132;18.006;2023-11-19T12:50:09;100430.02;;;1.28;84.38
77005;BME280;67261;53.132;18.006;2023-11-19T12:52:36;100408.20;;;1.31;84.47
77005;BME280;67261;53.132;18.006;2023-11-19T12:55:04;100397.79;;;1.36;84.47
77005;BME280;67261;53.132;18.006;2023-11-19T12:57:42;100398.17;;;1.36;84.47
77005;BME280;67261;53.132;18.006;2023-11-19T13:00:19;100397.58;;;1.37;84.40
77005;BME280;67261;53.132;18.006;2023-11-19T13:02:58;100397.11;;;1.38;84.40
77005;BME280;67261;53.132;18.006;2023-11-19T13:05:32;100390.16;;;1.38;84.42
77005;BME280;67261;53.132;18.006;2023-11-19T13:08:02;100394.62;;;1.39;84.34
77005;BME280;67261;53.132;18.006;2023-11-19T13:10:51;100389.55;;;1.37;84.53
77005;BME280;67261;53.132;18.006;2023-11-19T13:13:18;100381.42;;;1.36;84.64
77005;BME280;67261;53.132;18.006;2023-11-19T13:15:44;100373.67;;;1.37;84.39